Hampden, ME (04444)

12:33 AM EDT on August 25, 2016 (GMT -0400)
Hampden | | Change Station

Elev 190 ft 44.74 °N, 68.87 °W | Updated 6 minutes ago

Partly Cloudy
Partly Cloudy
63.5 °F
Feels Like 63.5 °F
N
1.7
Wind Variable Wind from South

Today
High -- | Low -- °F
--% Chance of Precip.
Yesterday
High -- | Low -- °F
Precip. -- in
Pressure 30.07 in
Visibility 10.0 miles
Clouds Few 25000 ft
Dew Point 58 °F
Humidity 82%
Rainfall 0.00 in
Snow Depth Not available.
5:50 AM 7:24 PM
Waning Gibbous, 50% visible
METAR KBGR 250353Z 19007KT 10SM FEW250 19/15 A3008 RMK AO2 SLP183 T01940150
Pressure 30.07 in
Visibility 10.0 miles
Clouds Few 25000 ft
Dew Point 58 °F
Humidity 82%
Rainfall 0.00 in
Snow Depth Not available.
5:50 AM 7:24 PM
Waning Gibbous, 50% visible
METAR KBGR 250353Z 19007KT 10SM FEW250 19/15 A3008 RMK AO2 SLP183 T01940150

10-Day Weather Forecast

Almanac

Astronomy

Aug. 25, 2016 Rise Set
Actual Time
Civil Twilight
Nautical Twilight
Astronomical Twilight
Moon
Length of Visible Light
Length of Day
Tomorrow will be .
, % of the Moon is Illuminated

Today's Extremes

State Highs State Lows

Community

WunderPhotos

Upload Photos

1,934,796 photos uploaded!

WunderBlog® & News

Nearby

Air Quality

  Air Quality AQ Index Pollutant
Not available.

Snow Depth

Station Depth Elevation

Earthquake Activity

City Distance Mag. Time & Date
Minimum magnitude displayed is 2.5.

Coastal Water Temperatures

Place Temperature

Stations

Nearby Weather Stations

Station Location Temp. Windchill Dew Point Humidity Wind Precip. Elev Updated Type
                   

Watches & Warnings

There are currently no watches in effect.